Time;durP1;ratioP1;P1;durP2;ratioP2;P2;SDS_P1;SDS_P2;PMS_P1;PMS_P2;Temp;Humidity;BMP_temperature;BMP_pressure;BME280_temperature;BME280_humidity;BME280_pressure;Samples;Min_cycle;Max_cycle;Signal;HPM_P1;HPM_P2
2021/11/04 00:00:34;;;;;;;46.80;27.97;;;;;;;10.47;100.00;94978.22;5116735;28;20448;-82
2021/11/04 00:03:01;;;;;;;48.90;29.40;;;;;;;10.48;100.00;95000.03;5116526;28;20439;-82
2021/11/04 00:05:29;;;;;;;63.10;32.80;;;;;;;10.47;100.00;95001.81;5116473;28;20451;-82
2021/11/04 00:07:57;;;;;;;55.77;31.87;;;;;;;10.44;100.00;95002.09;5116931;28;20800;-82
2021/11/04 00:10:25;;;;;;;47.07;27.77;;;;;;;10.42;100.00;94990.06;5114825;28;20434;-82
2021/11/04 00:12:54;;;;;;;47.57;28.93;;;;;;;9.91;100.00;94990.69;5115603;28;20493;-82
2021/11/04 00:15:21;;;;;;;41.33;27.20;;;;;;;10.09;100.00;94993.59;5114953;28;20482;-82
2021/11/04 00:17:48;;;;;;;45.83;28.63;;;;;;;9.89;100.00;94982.13;5096823;28;20447;-82
2021/11/04 00:20:17;;;;;;;50.93;29.10;;;;;;;9.84;100.00;94987.72;5114683;28;20910;-82
2021/11/04 00:22:45;;;;;;;46.83;26.43;;;;;;;9.84;100.00;94979.88;5096586;28;20930;-82
2021/11/04 00:25:13;;;;;;;46.43;28.60;;;;;;;9.74;100.00;94999.88;5115056;28;20440;-82
2021/11/04 00:27:40;;;;;;;40.00;24.37;;;;;;;9.78;100.00;94992.59;5115052;28;20439;-82
2021/11/04 00:30:10;;;;;;;47.37;26.93;;;;;;;9.47;100.00;94981.13;5115565;28;20515;-82
2021/11/04 00:32:37;;;;;;;46.13;26.83;;;;;;;9.62;100.00;94987.78;5114793;28;20490;-82
2021/11/04 00:35:06;;;;;;;43.00;26.10;;;;;;;9.37;100.00;94965.31;5115055;28;20443;-82
2021/11/04 00:37:33;;;;;;;37.20;23.93;;;;;;;9.54;100.00;94963.94;5115287;28;20446;-82
2021/11/04 00:40:00;;;;;;;55.00;29.73;;;;;;;9.49;100.00;94969.56;5114721;28;20443;-81
2021/11/04 00:42:26;;;;;;;48.60;28.40;;;;;;;9.57;100.00;94985.53;5132903;28;20553;-82
2021/11/04 00:44:53;;;;;;;44.87;26.20;;;;;;;9.36;100.00;94957.56;5136753;28;20520;-82
2021/11/04 00:47:22;;;;;;;39.33;24.60;;;;;;;9.47;100.00;94987.19;5134868;28;20812;-82
2021/11/04 00:49:49;;;;;;;36.53;21.50;;;;;;;9.50;100.00;94975.63;5135101;28;20451;-82
2021/11/04 00:52:16;;;;;;;41.33;23.53;;;;;;;9.56;100.00;94960.28;5082422;28;20874;-82
2021/11/04 00:54:43;;;;;;;33.27;22.00;;;;;;;9.59;100.00;95003.75;5135122;28;20799;-82
2021/11/04 00:57:10;;;;;;;36.00;22.60;;;;;;;9.59;100.00;94967.06;5135022;28;20431;-82
2021/11/04 00:59:37;;;;;;;44.90;23.87;;;;;;;9.54;100.00;94990.16;5136057;28;20832;-82
2021/11/04 01:02:04;;;;;;;39.00;22.67;;;;;;;9.53;100.00;94993.72;5135699;28;20444;-82
2021/11/04 01:04:32;;;;;;;46.67;24.00;;;;;;;9.60;100.00;94987.91;5085196;28;20456;-82
2021/11/04 01:07:00;;;;;;;35.23;22.97;;;;;;;9.73;100.00;95005.25;5136016;28;20450;-82
2021/11/04 01:09:26;;;;;;;35.00;20.90;;;;;;;9.79;100.00;94995.09;5135219;28;20510;-82
2021/11/04 01:11:53;;;;;;;32.27;22.20;;;;;;;9.80;100.00;94970.56;5134729;28;20984;-82
2021/11/04 01:14:20;;;;;;;33.53;22.10;;;;;;;9.92;100.00;94990.56;5081967;28;20579;-81
2021/11/04 01:16:47;;;;;;;34.40;21.27;;;;;;;9.95;100.00;94965.88;5135776;28;20525;-82
2021/11/04 01:19:15;;;;;;;31.00;21.90;;;;;;;10.03;100.00;94979.19;5135172;28;20430;-82
2021/11/04 01:21:43;;;;;;;34.43;22.13;;;;;;;9.77;100.00;94976.06;5135249;28;20489;-82
2021/11/04 01:24:10;;;;;;;32.83;20.80;;;;;;;9.86;100.00;94964.84;5134501;28;20426;-82
2021/11/04 01:26:37;;;;;;;38.97;20.97;;;;;;;9.79;100.00;94965.44;5135755;28;20430;-82
2021/11/04 01:29:04;;;;;;;28.63;21.30;;;;;;;9.86;100.00;94959.59;5135510;27;20426;-82
2021/11/04 01:31:31;;;;;;;29.90;20.33;;;;;;;9.86;100.00;94967.47;5138809;27;20783;-82
2021/11/04 01:33:58;;;;;;;33.77;19.57;;;;;;;9.67;100.00;94969.91;5138353;27;20470;-82
2021/11/04 01:36:25;;;;;;;31.17;19.03;;;;;;;9.75;100.00;94967.47;5138134;27;20427;-82
2021/11/04 01:38:53;;;;;;;34.00;20.90;;;;;;;9.69;100.00;94961.91;5138432;27;20427;-82
2021/11/04 01:41:20;;;;;;;33.40;21.83;;;;;;;9.71;100.00;94973.94;5085354;27;20480;-82
2021/11/04 01:43:47;;;;;;;31.87;21.10;;;;;;;9.80;100.00;94974.97;5138953;27;20454;-82
2021/11/04 01:46:14;;;;;;;45.50;25.67;;;;;;;9.80;100.00;94974.97;5138316;27;20431;-82
2021/11/04 01:48:41;;;;;;;39.17;22.60;;;;;;;9.81;100.00;94980.09;5138525;27;20461;-82
2021/11/04 01:51:08;;;;;;;40.93;24.03;;;;;;;9.82;100.00;94975.69;5138848;27;20438;-82
2021/11/04 01:53:35;;;;;;;46.67;25.37;;;;;;;9.83;100.00;94969.47;5138748;27;20474;-83
2021/11/04 01:56:04;;;;;;;35.83;21.93;;;;;;;9.85;100.00;94978.91;5085453;27;20469;-82
2021/11/04 01:58:31;;;;;;;44.13;24.67;;;;;;;9.82;100.00;94973.88;5138009;27;20449;-82
2021/11/04 02:00:58;;;;;;;40.07;25.57;;;;;;;9.78;100.00;94975.09;5138345;27;20446;-82
2021/11/04 02:03:32;;;;;;;44.60;27.57;;;;;;;9.78;100.00;94972.47;5138008;27;20947;-82
2021/11/04 02:06:08;;;;;;;37.83;24.43;;;;;;;9.76;100.00;94979.63;5138426;27;20431;-83
2021/11/04 02:08:42;;;;;;;37.17;24.83;;;;;;;9.75;100.00;94979.75;5138342;27;20487;-82
2021/11/04 02:11:15;;;;;;;35.60;24.40;;;;;;;9.63;100.00;94974.56;5137933;27;20437;-82
2021/11/04 02:13:47;;;;;;;41.33;22.93;;;;;;;9.61;100.00;94980.88;5137613;27;20505;-82
2021/11/04 02:16:17;;;;;;;38.10;21.80;;;;;;;9.55;100.00;94991.84;5137595;27;20434;-82
2021/11/04 02:18:46;;;;;;;34.60;21.77;;;;;;;9.56;100.00;94993.50;5101906;27;20430;-82
2021/11/04 02:21:20;;;;;;;37.73;23.30;;;;;;;9.56;100.00;94990.88;5138523;27;20513;-82
2021/11/04 02:24:18;;;;;;;30.77;22.77;;;;;;;9.55;100.00;94983.97;5137865;27;20430;-82
2021/11/04 02:26:49;;;;;;;35.40;21.63;;;;;;;9.55;100.00;94992.69;5138134;27;20788;-82
2021/11/04 02:29:19;;;;;;;32.50;20.97;;;;;;;9.51;100.00;94978.13;5137486;27;20437;-82
2021/11/04 02:31:47;;;;;;;32.33;21.30;;;;;;;9.49;100.00;94987.06;5137211;27;20438;-82
2021/11/04 02:38:18;;;;;;;32.00;20.80;;;;;;;9.48;100.00;94986.22;5137379;27;20443;-82
2021/11/04 02:40:46;;;;;;;27.20;17.90;;;;;;;9.48;100.00;94990.63;5136120;27;20527;-82
2021/11/04 02:43:16;;;;;;;29.83;18.53;;;;;;;9.48;100.00;94990.63;5137668;27;20527;-82
2021/11/04 02:45:43;;;;;;;26.97;17.63;;;;;;;9.46;100.00;94975.03;5084168;27;20510;-82
2021/11/04 02:48:11;;;;;;;29.27;18.87;;;;;;;9.45;100.00;94993.50;5137201;27;20541;-82
2021/11/04 02:50:38;;;;;;;29.67;20.40;;;;;;;9.42;100.00;94993.75;5137197;27;20431;-82
2021/11/04 02:53:05;;;;;;;29.70;19.10;;;;;;;9.41;100.00;94997.31;5137671;27;20486;-82
2021/11/04 02:55:33;;;;;;;31.53;20.13;;;;;;;9.40;100.00;95009.56;5084417;27;20567;-82
2021/11/04 02:58:04;;;;;;;32.77;20.10;;;;;;;9.37;100.00;95001.13;5137330;27;20450;-82
2021/11/04 03:00:33;;;;;;;28.77;20.20;;;;;;;9.37;100.00;95016.84;5137000;27;20431;-82
2021/11/04 03:03:00;;;;;;;28.03;18.70;;;;;;;9.38;100.00;95027.19;5137089;27;20429;-82
2021/11/04 03:05:27;;;;;;;27.27;18.93;;;;;;;9.37;100.00;95029.94;5137245;27;20453;-82
2021/11/04 03:07:55;;;;;;;28.77;20.27;;;;;;;9.38;100.00;95031.59;5084195;27;20535;-82
2021/11/04 03:10:22;;;;;;;28.93;19.20;;;;;;;9.38;100.00;95024.59;5136601;27;20905;-83
2021/11/04 03:12:50;;;;;;;26.57;17.50;;;;;;;9.32;100.00;95022.44;5137559;27;20484;-82
2021/11/04 03:15:18;;;;;;;29.70;18.63;;;;;;;9.35;100.00;95043.16;5137642;27;20445;-83
2021/11/04 03:17:48;;;;;;;35.43;17.83;;;;;;;9.27;100.00;95021.97;5084826;27;20450;-82
2021/11/04 03:20:17;;;;;;;24.20;17.83;;;;;;;9.25;100.00;95034.31;5136784;27;20435;-82
2021/11/04 03:22:45;;;;;;;34.47;20.17;;;;;;;9.23;100.00;95031.81;5136921;27;20502;-82
2021/11/04 03:25:15;;;;;;;38.20;24.57;;;;;;;9.19;100.00;95034.81;5083280;27;20509;-82
2021/11/04 03:27:45;;;;;;;36.77;24.40;;;;;;;9.12;100.00;95046.69;5136839;27;20787;-82
2021/11/04 03:30:14;;;;;;;36.43;22.43;;;;;;;9.13;100.00;95030.88;5136349;27;20909;-82
2021/11/04 03:32:42;;;;;;;40.77;23.40;;;;;;;9.06;100.00;95039.31;5137186;27;20529;-82
2021/11/04 03:35:12;;;;;;;34.23;20.80;;;;;;;9.07;100.00;95038.38;5135726;27;20819;-83
2021/11/04 03:37:42;;;;;;;29.37;19.20;;;;;;;9.08;100.00;95034.81;5136437;27;20525;-82
2021/11/04 03:40:10;;;;;;;26.87;16.70;;;;;;;9.09;100.00;95037.31;5135585;27;20453;-83
2021/11/04 03:42:39;;;;;;;28.93;19.50;;;;;;;9.05;100.00;95035.88;5136766;27;20473;-82
2021/11/04 03:45:07;;;;;;;31.60;17.90;;;;;;;9.04;100.00;95034.22;5136010;27;20447;-83
2021/11/04 03:47:36;;;;;;;38.17;19.77;;;;;;;8.97;100.00;95025.16;5136530;27;20876;-82
2021/11/04 03:50:05;;;;;;;32.40;20.27;;;;;;;9.03;100.00;95024.69;5136346;27;20447;-82
2021/11/04 03:52:34;;;;;;;37.97;22.97;;;;;;;9.10;100.00;95022.44;5137339;27;20480;-82
2021/11/04 03:55:01;;;;;;;33.53;22.33;;;;;;;9.22;100.00;95031.94;5136510;27;20473;-82
2021/11/04 03:57:29;;;;;;;33.17;22.80;;;;;;;9.26;100.00;95013.28;5136613;27;20819;-83
2021/11/04 03:59:56;;;;;;;30.07;20.70;;;;;;;9.37;100.00;95024.69;5137282;27;20461;-83
2021/11/04 04:02:24;;;;;;;35.73;22.30;;;;;;;9.40;100.00;95009.56;5084147;27;20941;-83
2021/11/04 04:04:53;;;;;;;32.93;20.77;;;;;;;9.42;100.00;95018.16;5136300;27;20533;-82
2021/11/04 04:07:20;;;;;;;35.30;20.73;;;;;;;9.40;100.00;95024.47;5135819;27;20427;-83
2021/11/04 04:09:48;;;;;;;31.40;21.27;;;;;;;9.38;100.00;95019.34;5135663;27;20446;-83
2021/11/04 04:12:16;;;;;;;35.27;21.50;;;;;;;9.40;100.00;95027.09;5135234;27;20453;-82
2021/11/04 04:14:43;;;;;;;29.10;15.80;;;;;;;9.37;100.00;95019.47;5135383;27;20473;-83
2021/11/04 04:17:10;;;;;;;34.57;19.23;;;;;;;9.39;100.00;95022.78;5083126;28;20449;-82
2021/11/04 04:19:37;;;;;;;32.40;18.43;;;;;;;9.42;100.00;95026.00;5135113;27;20992;-82
2021/11/04 04:22:05;;;;;;;25.90;17.77;;;;;;;9.46;100.00;95013.50;5135357;27;20422;-83
2021/11/04 04:24:32;;;;;;;27.53;17.57;;;;;;;9.50;100.00;95026.22;5135681;28;20446;-83
2021/11/04 04:27:03;;;;;;;23.17;14.97;;;;;;;9.52;100.00;95028.72;5084365;28;20841;-83
2021/11/04 04:29:30;;;;;;;23.30;15.50;;;;;;;9.57;100.00;95013.50;5136025;28;20427;-83
2021/11/04 04:31:57;;;;;;;21.80;14.70;;;;;;;9.60;100.00;95024.56;5134700;28;20454;-82
2021/11/04 04:34:25;;;;;;;23.30;14.30;;;;;;;9.62;100.00;95024.44;5134652;28;20470;-83
2021/11/04 04:36:52;;;;;;;20.83;15.50;;;;;;;9.66;100.00;95025.03;5134795;28;20549;-83
2021/11/04 04:39:19;;;;;;;28.27;16.67;;;;;;;9.70;100.00;95016.81;5134921;28;20453;-82
2021/11/04 04:41:46;;;;;;;29.17;15.67;;;;;;;9.73;100.00;95023.59;5134728;28;20562;-82
2021/11/04 04:44:14;;;;;;;30.00;19.20;;;;;;;9.76;100.00;95031.22;5135475;28;20522;-82
2021/11/04 04:46:41;;;;;;;43.70;32.67;;;;;;;9.76;100.00;95018.94;5135405;28;20879;-82
2021/11/04 04:49:08;;;;;;;72.07;50.00;;;;;;;9.76;100.00;95037.28;5135112;28;20803;-83
2021/11/04 04:51:36;;;;;;;71.27;56.20;;;;;;;9.79;100.00;95036.19;5134750;28;20447;-82
2021/11/04 04:54:03;;;;;;;69.83;47.07;;;;;;;9.80;100.00;95043.94;5134619;28;20765;-82
2021/11/04 04:56:30;;;;;;;50.93;32.30;;;;;;;9.82;100.00;95035.97;5134612;28;20445;-82
2021/11/04 04:58:57;;;;;;;33.77;21.47;;;;;;;9.87;100.00;95041.69;5134156;28;20435;-82
2021/11/04 05:01:25;;;;;;;25.97;17.87;;;;;;;9.84;100.00;95044.56;5134305;27;20533;-83
2021/11/04 05:03:52;;;;;;;26.23;16.17;;;;;;;9.83;100.00;95046.34;5136360;27;20467;-82
2021/11/04 05:06:19;;;;;;;28.97;17.93;;;;;;;9.88;100.00;95052.06;5139492;27;20783;-82
2021/11/04 05:08:46;;;;;;;45.93;27.87;;;;;;;9.81;100.00;95057.88;5103434;27;20438;-82
2021/11/04 05:11:14;;;;;;;53.13;29.27;;;;;;;9.82;100.00;95046.44;5138361;27;20517;-82
2021/11/04 05:13:41;;;;;;;38.23;27.93;;;;;;;9.82;100.00;95055.13;5139204;27;20428;-82
2021/11/04 05:16:08;;;;;;;48.67;28.80;;;;;;;9.86;100.00;95058.38;5139037;27;20998;-82
2021/11/04 05:18:37;;;;;;;44.73;27.13;;;;;;;9.80;100.00;95049.19;5138068;27;20430;-82
2021/11/04 05:21:04;;;;;;;85.77;59.53;;;;;;;9.78;100.00;95055.50;5137552;27;20951;-82
2021/11/04 05:23:31;;;;;;;46.93;34.63;;;;;;;9.74;100.00;95049.66;5138247;27;20510;-82
2021/11/04 05:25:58;;;;;;;34.90;24.70;;;;;;;9.60;100.00;95052.56;5138132;27;20452;-83
2021/11/04 05:28:25;;;;;;;38.97;23.47;;;;;;;9.57;100.00;95035.28;5138073;27;20423;-82
2021/11/04 05:30:53;;;;;;;47.03;25.20;;;;;;;9.94;100.00;95042.84;5138037;27;21027;-83
2021/11/04 05:33:20;;;;;;;37.03;23.30;;;;;;;10.32;100.00;95058.16;5138133;27;20423;-83
2021/11/04 05:35:48;;;;;;;35.57;22.47;;;;;;;10.40;100.00;95055.72;5138439;27;20565;-83
2021/11/04 05:38:15;;;;;;;31.53;20.77;;;;;;;10.79;100.00;95063.94;5102376;27;20477;-83
2021/11/04 05:40:42;;;;;;;29.73;20.63;;;;;;;11.29;99.31;95066.75;5138909;27;20513;-83
2021/11/04 05:43:09;;;;;;;29.00;20.27;;;;;;;11.77;96.35;95064.31;5137262;27;20935;-82
2021/11/04 05:45:36;;;;;;;30.00;20.87;;;;;;;12.14;92.83;95055.88;5137020;27;20932;-82
2021/11/04 05:48:03;;;;;;;29.97;19.83;;;;;;;12.60;91.52;95071.03;5137495;27;20546;-82
2021/11/04 05:50:30;;;;;;;35.90;21.30;;;;;;;13.03;88.80;95074.09;5137228;27;20489;-82
2021/11/04 05:53:00;;;;;;;39.80;27.13;;;;;;;13.37;85.52;95071.00;5137371;27;20451;-82
2021/11/04 05:55:27;;;;;;;55.20;33.63;;;;;;;13.63;84.40;95073.84;5137259;27;20906;-83
2021/11/04 05:57:54;;;;;;;39.80;25.17;;;;;;;13.86;83.72;95069.00;5137045;27;20871;-83
2021/11/04 06:00:21;;;;;;;34.43;22.43;;;;;;;13.92;84.28;95076.38;5137222;27;20518;-82
2021/11/04 06:02:48;;;;;;;35.10;25.03;;;;;;;14.24;83.51;95081.19;5084097;27;20807;-82
2021/11/04 06:05:15;;;;;;;49.30;29.30;;;;;;;14.57;81.79;95077.13;5136712;27;20506;-82
2021/11/04 06:07:42;;;;;;;45.30;28.73;;;;;;;14.90;80.45;95090.66;5137094;27;20518;-83
2021/11/04 06:10:11;;;;;;;47.77;28.20;;;;;;;15.13;78.81;95095.31;5136489;27;20731;-83
2021/11/04 06:12:38;;;;;;;51.97;28.50;;;;;;;15.31;78.01;95094.44;5136711;27;20818;-83
2021/11/04 06:15:05;;;;;;;66.23;41.13;;;;;;;15.24;77.20;95109.28;5135830;27;20632;-83
2021/11/04 06:17:32;;;;;;;62.80;40.63;;;;;;;15.09;77.24;95114.28;5083398;27;20525;-82
2021/11/04 06:19:59;;;;;;;62.70;38.10;;;;;;;14.91;78.92;95142.50;5136055;27;20938;-83
2021/11/04 06:22:26;;;;;;;52.43;32.33;;;;;;;14.36;80.99;95145.19;5083671;27;20987;-82
2021/11/04 06:24:53;;;;;;;33.97;21.13;;;;;;;14.68;86.41;95155.31;5099865;27;20526;-85
2021/11/04 06:27:22;;;;;;;51.47;31.57;;;;;;;15.27;80.87;95145.97;5135671;27;20480;-83
2021/11/04 06:29:49;;;;;;;42.00;29.70;;;;;;;15.35;81.31;95146.91;5136485;27;20530;-82
2021/11/04 06:32:16;;;;;;;47.27;28.20;;;;;;;15.37;81.03;95142.28;5136641;27;20514;-82
2021/11/04 06:34:43;;;;;;;40.60;25.67;;;;;;;15.38;80.50;95143.94;5136768;27;20474;-83
2021/11/04 06:37:10;;;;;;;40.57;23.43;;;;;;;15.39;81.79;95142.97;5136570;27;20491;-84
2021/11/04 06:39:37;;;;;;;40.40;27.80;;;;;;;15.13;82.21;95127.03;5136731;27;20470;-82
2021/11/04 06:42:04;;;;;;;46.73;29.87;;;;;;;14.56;83.87;95128.28;5136210;27;20486;-83
2021/11/04 06:44:33;;;;;;;43.00;29.77;;;;;;;14.71;84.83;95132.06;5136443;27;20466;-84
2021/11/04 06:47:02;;;;;;;39.27;26.67;;;;;;;14.85;84.81;95131.56;5084466;27;20493;-87
2021/11/04 06:49:36;;;;;;;34.93;25.80;;;;;;;14.98;84.05;95127.72;5137201;27;20967;-85
2021/11/04 06:52:04;;;;;;;26.33;17.53;;;;;;;15.04;83.89;95112.09;5136851;27;20786;-86
2021/11/04 06:54:32;;;;;;;26.27;17.13;;;;;;;15.12;83.39;95106.88;5136967;27;20470;-85
2021/11/04 06:57:06;;;;;;;23.67;17.40;;;;;;;15.09;83.68;95095.78;5136892;27;20457;-85
2021/11/04 06:59:36;;;;;;;21.27;13.23;;;;;;;15.12;83.59;95108.69;5136241;27;20438;-87
2021/11/04 07:02:04;;;;;;;17.37;11.80;;;;;;;15.24;86.30;95110.09;5136433;27;20913;-85
2021/11/04 07:04:33;;;;;;;17.33;11.17;;;;;;;15.09;82.58;95101.06;5136808;27;20438;-87
2021/11/04 07:13:47;;;;;;;13.90;9.53;;;;;;;14.55;85.22;95108.16;5135819;27;20438;-85
2021/11/04 07:16:16;;;;;;;16.97;10.57;;;;;;;14.42;86.12;95119.00;5135906;27;20466;-86
2021/11/04 07:18:44;;;;;;;12.50;8.67;;;;;;;14.45;87.38;95121.38;5135718;27;20781;-85
2021/11/04 07:21:16;;;;;;;13.17;9.13;;;;;;;14.42;86.52;95131.38;5134028;27;20786;-86
2021/11/04 07:27:15;;;;;;;18.70;13.60;;;;;;;14.32;88.74;95123.53;5134312;27;20417;-85
2021/11/04 07:29:47;;;;;;;16.93;12.30;;;;;;;14.34;88.56;95133.94;5137387;27;20538;-85
2021/11/04 07:32:18;;;;;;;13.40;9.67;;;;;;;14.43;88.35;95125.16;5135890;27;20456;-86
2021/11/04 07:34:50;;;;;;;54.17;27.63;;;;;;;14.19;87.43;95123.88;5121283;27;20488;-85
2021/11/04 07:37:17;;;;;;;26.63;15.53;;;;;;;14.30;88.04;95127.28;5160411;27;20441;-86
2021/11/04 07:39:45;;;;;;;17.03;11.20;;;;;;;14.28;87.98;95122.16;5135828;27;21019;-85
2021/11/04 07:42:13;;;;;;;17.07;10.57;;;;;;;14.34;88.26;95133.94;5135344;27;20574;-86
2021/11/04 07:44:40;;;;;;;16.87;13.83;;;;;;;14.39;88.54;95129.03;5135754;27;20810;-87
2021/11/04 07:47:08;;;;;;;29.80;18.57;;;;;;;14.45;89.20;95131.13;5136251;27;20439;-86
2021/11/04 07:49:37;;;;;;;25.30;16.10;;;;;;;14.46;88.55;95135.44;5136930;27;20503;-86
2021/11/04 07:52:06;;;;;;;28.40;16.10;;;;;;;14.51;88.91;95135.81;5146764;27;20480;-85
2021/11/04 07:54:34;;;;;;;19.43;13.87;;;;;;;14.55;87.74;95132.75;5161683;27;20986;-86
2021/11/04 07:57:01;;;;;;;19.33;13.73;;;;;;;14.62;87.37;95129.50;5156939;27;20806;-85
2021/11/04 07:59:30;;;;;;;28.83;19.80;;;;;;;14.69;87.72;95120.00;5153188;27;20423;-85
2021/11/04 08:01:59;;;;;;;29.23;15.60;;;;;;;14.44;89.03;95121.53;5136503;27;20447;-86
2021/11/04 08:04:27;;;;;;;26.10;16.30;;;;;;;14.49;89.05;95114.03;5135362;27;20545;-86
2021/11/04 08:06:58;;;;;;;25.73;14.70;;;;;;;14.57;88.70;95114.09;5135865;27;20470;-85
2021/11/04 08:09:26;;;;;;;24.00;14.83;;;;;;;14.75;88.43;95122.88;5135110;27;20781;-86
2021/11/04 08:11:53;;;;;;;24.97;14.60;;;;;;;14.91;88.83;95129.31;5133982;27;20454;-85
2021/11/04 08:14:20;;;;;;;23.50;16.20;;;;;;;15.08;87.76;95139.06;5116864;28;20447;-86
2021/11/04 08:16:49;;;;;;;22.73;15.00;;;;;;;15.13;86.51;95139.44;5065795;28;20473;-87
2021/11/04 08:19:17;;;;;;;22.17;15.30;;;;;;;15.11;85.20;95134.28;5119975;28;20456;-87
2021/11/04 08:21:44;;;;;;;22.90;14.07;;;;;;;15.19;86.05;95130.88;5123545;27;20437;-86
2021/11/04 08:30:57;;;;;;;32.03;14.10;;;;;;;15.62;84.77;95153.91;5140786;27;20968;-86
2021/11/04 08:33:24;;;;;;;19.27;12.60;;;;;;;15.67;82.94;95137.56;5156370;27;20449;-85
2021/11/04 08:35:51;;;;;;;25.93;13.47;;;;;;;15.82;83.48;95143.94;5156820;27;20470;-85
2021/11/04 08:38:18;;;;;;;18.70;13.67;;;;;;;15.89;82.18;95142.31;5087091;28;20520;-86
2021/11/04 08:40:45;;;;;;;18.60;13.67;;;;;;;15.87;81.54;95148.75;5139356;27;20570;-87
2021/11/04 08:43:12;;;;;;;21.63;13.80;;;;;;;15.93;81.62;95149.00;5139692;27;20537;-87
2021/11/04 08:45:39;;;;;;;25.77;13.20;;;;;;;16.01;80.87;95149.03;5139814;27;20848;-86
2021/11/04 08:48:08;;;;;;;21.50;13.90;;;;;;;16.16;80.39;95148.44;5139293;27;20861;-86
2021/11/04 08:50:35;;;;;;;21.17;13.30;;;;;;;16.22;79.11;95145.19;5139183;27;20463;-86
2021/11/04 08:53:02;;;;;;;19.70;13.00;;;;;;;16.39;79.66;95137.13;5139138;27;20469;-86
2021/11/04 08:55:29;;;;;;;24.90;15.40;;;;;;;16.58;79.58;95130.75;5139375;27;20470;-86
2021/11/04 08:57:56;;;;;;;27.87;14.43;;;;;;;16.68;78.49;95131.47;5140005;27;20430;-86
2021/11/04 09:00:24;;;;;;;21.87;12.80;;;;;;;16.86;77.51;95135.81;5140612;27;20462;-86
2021/11/04 09:02:51;;;;;;;15.73;12.33;;;;;;;16.99;79.04;95141.47;5139788;27;20469;-84
2021/11/04 09:05:19;;;;;;;20.27;14.03;;;;;;;17.12;77.60;95141.84;5139395;27;20458;-85
2021/11/04 09:07:47;;;;;;;22.93;13.90;;;;;;;17.27;76.72;95139.34;5139713;27;20434;-84
2021/11/04 09:10:18;;;;;;;39.10;14.07;;;;;;;17.18;75.19;95145.66;5140291;27;20434;-88
2021/11/04 09:26:13;;;;;;;17.63;11.73;;;;;;;17.17;75.35;95102.41;5138907;27;20904;-86
2021/11/04 09:28:40;;;;;;;17.20;9.53;;;;;;;17.28;75.41;95102.06;5138705;27;20431;-85
2021/11/04 09:31:09;;;;;;;13.17;10.63;;;;;;;17.33;76.01;95096.25;5139047;27;20458;-84
2021/11/04 09:33:37;;;;;;;15.80;10.30;;;;;;;17.46;75.40;95096.59;5138951;27;20439;-87
2021/11/04 09:36:04;;;;;;;15.60;10.00;;;;;;;17.59;75.23;95096.06;5138344;27;20486;-87
2021/11/04 09:38:31;;;;;;;16.50;10.97;;;;;;;17.72;75.17;95103.56;5138976;27;20849;-86
2021/11/04 09:40:58;;;;;;;20.10;11.47;;;;;;;17.79;75.62;95102.72;5098538;28;20562;-86
2021/11/04 09:43:27;;;;;;;19.03;10.67;;;;;;;17.89;73.98;95106.00;5118096;28;20569;-88
2021/11/04 09:45:55;;;;;;;14.67;11.10;;;;;;;17.90;73.92;95114.78;5117656;28;20432;-86
2021/11/04 09:48:23;;;;;;;21.23;12.50;;;;;;;17.92;74.05;95107.47;5117816;28;20550;-85
2021/11/04 09:54:12;;;;;;;18.90;10.30;;;;;;;18.02;73.30;95105.50;5117450;28;20814;-85
2021/11/04 09:56:39;;;;;;;14.10;10.23;;;;;;;18.05;73.54;95094.53;5117071;28;20875;-86
2021/11/04 09:59:08;;;;;;;16.63;9.90;;;;;;;18.03;72.01;95091.22;5117196;28;20455;-85
2021/11/04 10:01:35;;;;;;;18.27;11.97;;;;;;;18.04;71.32;95102.66;5116864;28;20464;-85
2021/11/04 10:04:05;;;;;;;12.37;9.70;;;;;;;18.08;72.22;95093.34;5116973;28;20452;-86
2021/11/04 10:06:37;;;;;;;19.27;10.57;;;;;;;18.11;72.12;95096.50;5116938;28;20455;-85
2021/11/04 10:09:08;;;;;;;17.67;11.20;;;;;;;18.17;72.33;95092.31;5116778;28;20448;-87
2021/11/04 10:11:39;;;;;;;14.90;10.47;;;;;;;18.21;71.72;95078.53;5116558;28;20913;-86
2021/11/04 10:14:11;;;;;;;18.33;10.47;;;;;;;18.24;71.19;95091.47;5117000;28;20868;-87
2021/11/04 10:16:38;;;;;;;14.43;10.07;;;;;;;18.25;71.87;95079.03;5117435;28;20475;-86
2021/11/04 10:19:07;;;;;;;14.67;9.83;;;;;;;18.34;70.93;95070.00;5082620;28;20530;-86
2021/11/04 10:21:37;;;;;;;16.70;10.77;;;;;;;18.33;70.72;95064.88;5121918;27;20530;-86
2021/11/04 10:24:08;;;;;;;18.23;10.20;;;;;;;18.38;70.78;95057.19;5137266;27;20452;-87
2021/11/04 10:26:38;;;;;;;18.43;11.00;;;;;;;18.26;70.76;95059.44;5137120;27;20446;-85
2021/11/04 10:29:07;;;;;;;21.00;11.00;;;;;;;18.26;71.41;95054.13;5137400;27;20521;-85
2021/11/04 10:31:41;;;;;;;19.60;11.30;;;;;;;18.27;71.22;95055.75;5137006;27;20491;-85
2021/11/04 10:34:13;;;;;;;12.37;9.90;;;;;;;18.32;71.51;95052.59;5137417;27;20429;-85
2021/11/04 10:36:43;;;;;;;14.97;9.60;;;;;;;18.36;71.80;95052.06;5136482;27;20478;-85
2021/11/04 10:39:11;;;;;;;17.70;10.60;;;;;;;18.43;71.73;95045.03;5136870;27;20465;-85
2021/11/04 10:41:43;;;;;;;15.07;9.40;;;;;;;18.45;71.05;95029.75;5137285;27;20900;-85
2021/11/04 10:44:15;;;;;;;19.80;10.90;;;;;;;18.46;70.96;95031.41;5137020;27;20441;-85
2021/11/04 10:46:45;;;;;;;19.23;10.30;;;;;;;18.57;71.35;95024.88;5137101;27;20446;-85
2021/11/04 10:49:13;;;;;;;19.40;11.23;;;;;;;18.64;71.19;95028.50;5136769;27;20537;-85
2021/11/04 10:51:41;;;;;;;11.77;9.97;;;;;;;18.72;71.11;95027.63;5136849;27;20894;-83
2021/11/04 10:54:09;;;;;;;15.73;9.87;;;;;;;18.75;70.49;95024.63;5136862;27;20450;-83
2021/11/04 10:56:39;;;;;;;16.13;7.93;;;;;;;18.81;69.66;95021.28;5136437;27;20562;-83
2021/11/04 10:59:08;;;;;;;12.70;8.60;;;;;;;18.86;68.67;95008.25;5136330;27;20431;-83
2021/11/04 11:01:42;;;;;;;9.37;8.40;;;;;;;18.96;69.38;95014.16;5081411;27;20439;-83
2021/11/04 11:04:13;;;;;;;15.97;9.57;;;;;;;19.02;70.18;95013.44;5135611;27;20858;-83
2021/11/04 11:06:42;;;;;;;11.87;8.80;;;;;;;19.13;70.43;95009.53;5135677;27;20972;-83
2021/11/04 11:09:12;;;;;;;9.33;8.37;;;;;;;19.18;69.99;95007.16;5135783;27;20938;-83
2021/11/04 11:11:42;;;;;;;11.57;9.13;;;;;;;19.19;69.44;94988.38;5135461;27;20443;-84
2021/11/04 11:14:09;;;;;;;12.50;9.30;;;;;;;19.30;69.64;94988.91;5135787;27;20488;-83
2021/11/04 11:16:38;;;;;;;13.97;8.63;;;;;;;19.25;68.62;94988.66;5135467;27;20482;-84
2021/11/04 11:19:07;;;;;;;15.50;8.90;;;;;;;19.34;68.73;94982.22;5135373;27;20439;-83
2021/11/04 11:21:40;;;;;;;12.33;10.17;;;;;;;19.49;71.28;94983.09;5135544;27;20535;-83
2021/11/04 11:24:10;;;;;;;14.00;9.63;;;;;;;19.55;68.72;94982.38;5135114;27;20546;-83
2021/11/04 11:26:38;;;;;;;14.03;9.17;;;;;;;19.60;68.79;94982.66;5135949;27;20445;-83
2021/11/04 11:29:05;;;;;;;11.13;8.77;;;;;;;19.68;68.21;94976.44;5139302;27;20534;-84
2021/11/04 11:31:33;;;;;;;15.83;9.03;;;;;;;19.80;68.77;94990.94;5135737;27;20518;-83
2021/11/04 11:34:28;;;;;;;15.73;9.10;;;;;;;19.90;68.18;94977.31;5135049;27;20517;-83
2021/11/04 11:37:18;;;;;;;22.47;9.90;;;;;;;20.02;67.22;94979.34;5071317;28;20555;-83
2021/11/04 11:39:48;;;;;;;26.20;9.57;;;;;;;20.02;66.80;94973.19;5071501;28;20438;-83
2021/11/04 11:42:18;;;;;;;16.13;8.70;;;;;;;20.05;67.62;94963.00;5054243;28;20839;-83
2021/11/04 11:44:54;;;;;;;14.43;9.80;;;;;;;20.16;68.20;94959.00;5071351;28;20457;-83
2021/11/04 11:47:22;;;;;;;17.13;9.20;;;;;;;20.22;67.25;94963.59;5071561;28;20453;-83
2021/11/04 11:50:10;;;;;;;12.10;9.87;;;;;;;20.25;66.90;94960.56;5071261;28;20449;-83
2021/11/04 11:52:48;;;;;;;11.43;9.23;;;;;;;20.22;68.12;94968.91;5071002;28;21003;-83
2021/11/04 11:55:17;;;;;;;13.17;8.73;;;;;;;20.19;67.30;94963.97;5071269;28;20487;-83
2021/11/04 11:58:17;;;;;;;14.83;8.63;;;;;;;20.24;68.10;94952.72;5070836;28;20834;-83
2021/11/04 12:01:08;;;;;;;15.43;8.37;;;;;;;20.26;67.23;94970.22;5071020;28;20447;-84